sensor_id;sensor_type;location;lat;lon;timestamp;temperature;humidity
18506;DHT22;9382;53.242;10.438;2023-02-28T00:00:00;-2.30;99.90
18506;DHT22;9382;53.242;10.438;2023-02-28T00:02:33;-2.30;99.90
18506;DHT22;9382;53.242;10.438;2023-02-28T00:05:00;-2.30;99.90
18506;DHT22;9382;53.242;10.438;2023-02-28T00:07:28;-2.30;99.90
18506;DHT22;9382;53.242;10.438;2023-02-28T00:09:55;-2.20;99.90
18506;DHT22;9382;53.242;10.438;2023-02-28T00:12:22;-2.20;99.90
18506;DHT22;9382;53.242;10.438;2023-02-28T00:14:49;-2.20;99.90
18506;DHT22;9382;53.242;10.438;2023-02-28T00:17:18;-2.30;99.90
18506;DHT22;9382;53.242;10.438;2023-02-28T00:19:47;-2.30;99.90
18506;DHT22;9382;53.242;10.438;2023-02-28T00:22:14;-2.30;99.90
18506;DHT22;9382;53.242;10.438;2023-02-28T00:24:41;-2.30;99.90
18506;DHT22;9382;53.242;10.438;2023-02-28T00:27:08;-2.30;99.90
18506;DHT22;9382;53.242;10.438;2023-02-28T00:29:35;-2.30;99.90
18506;DHT22;9382;53.242;10.438;2023-02-28T00:32:03;-2.40;99.90
18506;DHT22;9382;53.242;10.438;2023-02-28T00:34:31;-2.30;99.90
18506;DHT22;9382;53.242;10.438;2023-02-28T00:37:04;-2.30;99.90
18506;DHT22;9382;53.242;10.438;2023-02-28T00:39:34;-2.30;99.90
18506;DHT22;9382;53.242;10.438;2023-02-28T00:42:01;-2.40;99.90
18506;DHT22;9382;53.242;10.438;2023-02-28T00:44:28;-2.40;99.90
18506;DHT22;9382;53.242;10.438;2023-02-28T00:46:55;-2.30;99.90
18506;DHT22;9382;53.242;10.438;2023-02-28T00:49:22;-2.40;99.90
18506;DHT22;9382;53.242;10.438;2023-02-28T00:51:50;-2.40;99.90
18506;DHT22;9382;53.242;10.438;2023-02-28T00:54:18;-2.40;99.90
18506;DHT22;9382;53.242;10.438;2023-02-28T00:56:45;-2.50;99.90
18506;DHT22;9382;53.242;10.438;2023-02-28T00:59:12;-2.60;99.90
18506;DHT22;9382;53.242;10.438;2023-02-28T01:01:39;-2.60;99.90
18506;DHT22;9382;53.242;10.438;2023-02-28T01:04:06;-2.60;99.90
18506;DHT22;9382;53.242;10.438;2023-02-28T01:06:33;-2.50;99.90
18506;DHT22;9382;53.242;10.438;2023-02-28T01:09:01;-2.40;99.90
18506;DHT22;9382;53.242;10.438;2023-02-28T01:11:29;-2.30;99.90
18506;DHT22;9382;53.242;10.438;2023-02-28T01:13:55;-2.30;99.90
18506;DHT22;9382;53.242;10.438;2023-02-28T01:16:22;-2.20;99.90
18506;DHT22;9382;53.242;10.438;2023-02-28T01:18:49;-2.20;99.90
18506;DHT22;9382;53.242;10.438;2023-02-28T01:21:18;-2.10;99.90
18506;DHT22;9382;53.242;10.438;2023-02-28T01:23:45;-2.10;99.90
18506;DHT22;9382;53.242;10.438;2023-02-28T01:26:16;-2.10;99.90
18506;DHT22;9382;53.242;10.438;2023-02-28T01:28:43;-2.10;99.90
18506;DHT22;9382;53.242;10.438;2023-02-28T01:31:10;-2.10;99.90
18506;DHT22;9382;53.242;10.438;2023-02-28T01:33:37;-2.20;99.90
18506;DHT22;9382;53.242;10.438;2023-02-28T01:36:06;-2.20;99.90
18506;DHT22;9382;53.242;10.438;2023-02-28T01:38:35;-2.30;99.90
18506;DHT22;9382;53.242;10.438;2023-02-28T01:41:02;-2.30;99.90
18506;DHT22;9382;53.242;10.438;2023-02-28T01:43:32;-2.40;99.90
18506;DHT22;9382;53.242;10.438;2023-02-28T01:46:18;-2.40;99.90
18506;DHT22;9382;53.242;10.438;2023-02-28T01:48:48;-2.50;99.90
18506;DHT22;9382;53.242;10.438;2023-02-28T01:51:20;-2.50;99.90
18506;DHT22;9382;53.242;10.438;2023-02-28T01:53:51;-2.60;99.90
18506;DHT22;9382;53.242;10.438;2023-02-28T01:56:23;-2.60;99.90
18506;DHT22;9382;53.242;10.438;2023-02-28T01:58:52;-2.50;99.90
18506;DHT22;9382;53.242;10.438;2023-02-28T02:01:20;-2.50;99.90
18506;DHT22;9382;53.242;10.438;2023-02-28T02:03:48;-2.50;99.90
18506;DHT22;9382;53.242;10.438;2023-02-28T02:06:21;-2.50;99.90
18506;DHT22;9382;53.242;10.438;2023-02-28T02:08:47;-2.50;99.90
18506;DHT22;9382;53.242;10.438;2023-02-28T02:11:18;-2.50;99.90
18506;DHT22;9382;53.242;10.438;2023-02-28T02:16:52;-2.60;99.90
18506;DHT22;9382;53.242;10.438;2023-02-28T02:20:09;-2.60;99.90
18506;DHT22;9382;53.242;10.438;2023-02-28T02:23:18;-2.60;99.90
18506;DHT22;9382;53.242;10.438;2023-02-28T02:25:51;-2.70;99.90
18506;DHT22;9382;53.242;10.438;2023-02-28T02:31:48;-3.00;99.90
18506;DHT22;9382;53.242;10.438;2023-02-28T02:34:45;-3.00;99.90
18506;DHT22;9382;53.242;10.438;2023-02-28T02:37:24;-3.10;99.90
18506;DHT22;9382;53.242;10.438;2023-02-28T02:40:02;-3.10;99.90
18506;DHT22;9382;53.242;10.438;2023-02-28T02:42:35;-3.10;99.90
18506;DHT22;9382;53.242;10.438;2023-02-28T02:45:07;-3.10;99.90
18506;DHT22;9382;53.242;10.438;2023-02-28T02:47:37;-3.20;99.90
18506;DHT22;9382;53.242;10.438;2023-02-28T02:50:08;-3.20;99.90
18506;DHT22;9382;53.242;10.438;2023-02-28T02:52:40;-3.30;99.90
18506;DHT22;9382;53.242;10.438;2023-02-28T02:55:11;-3.30;99.90
18506;DHT22;9382;53.242;10.438;2023-02-28T02:57:42;-3.30;99.90
18506;DHT22;9382;53.242;10.438;2023-02-28T03:00:12;-3.30;99.90
18506;DHT22;9382;53.242;10.438;2023-02-28T03:02:41;-3.30;99.90
18506;DHT22;9382;53.242;10.438;2023-02-28T03:05:16;-3.30;99.90
18506;DHT22;9382;53.242;10.438;2023-02-28T03:07:44;-3.30;99.90
18506;DHT22;9382;53.242;10.438;2023-02-28T03:10:30;-3.30;99.90
18506;DHT22;9382;53.242;10.438;2023-02-28T03:13:11;-3.30;99.90
18506;DHT22;9382;53.242;10.438;2023-02-28T03:15:47;-3.40;99.90
18506;DHT22;9382;53.242;10.438;2023-02-28T03:18:26;-3.40;99.90
18506;DHT22;9382;53.242;10.438;2023-02-28T03:21:04;-3.50;99.90
18506;DHT22;9382;53.242;10.438;2023-02-28T03:23:38;-3.50;99.90
18506;DHT22;9382;53.242;10.438;2023-02-28T03:26:13;-3.40;99.90
18506;DHT22;9382;53.242;10.438;2023-02-28T03:28:46;-3.40;99.90
18506;DHT22;9382;53.242;10.438;2023-02-28T03:31:18;-3.40;99.90
18506;DHT22;9382;53.242;10.438;2023-02-28T03:33:50;-3.40;99.90
18506;DHT22;9382;53.242;10.438;2023-02-28T03:36:24;-3.40;99.90
18506;DHT22;9382;53.242;10.438;2023-02-28T03:38:55;-3.40;99.90
18506;DHT22;9382;53.242;10.438;2023-02-28T03:41:25;-3.50;99.90
18506;DHT22;9382;53.242;10.438;2023-02-28T03:43:55;-3.60;99.90
18506;DHT22;9382;53.242;10.438;2023-02-28T03:46:25;-3.60;99.90
18506;DHT22;9382;53.242;10.438;2023-02-28T03:48:56;-3.50;99.90
18506;DHT22;9382;53.242;10.438;2023-02-28T03:51:28;-3.50;99.90
18506;DHT22;9382;53.242;10.438;2023-02-28T03:53:59;-3.50;99.90
18506;DHT22;9382;53.242;10.438;2023-02-28T03:56:32;-3.50;99.90
18506;DHT22;9382;53.242;10.438;2023-02-28T03:59:04;-3.50;99.90
18506;DHT22;9382;53.242;10.438;2023-02-28T04:01:36;-3.60;99.90
18506;DHT22;9382;53.242;10.438;2023-02-28T04:04:04;-3.60;99.90
18506;DHT22;9382;53.242;10.438;2023-02-28T04:06:34;-3.50;99.90
18506;DHT22;9382;53.242;10.438;2023-02-28T04:09:01;-3.40;99.90
18506;DHT22;9382;53.242;10.438;2023-02-28T04:11:32;-3.40;99.90
18506;DHT22;9382;53.242;10.438;2023-02-28T04:14:00;-3.40;99.90
18506;DHT22;9382;53.242;10.438;2023-02-28T04:16:27;-3.40;99.90
18506;DHT22;9382;53.242;10.438;2023-02-28T04:18:54;-3.40;99.90
18506;DHT22;9382;53.242;10.438;2023-02-28T04:21:27;-3.40;99.90
18506;DHT22;9382;53.242;10.438;2023-02-28T04:23:55;-3.50;99.90
18506;DHT22;9382;53.242;10.438;2023-02-28T04:26:27;-3.50;99.90
18506;DHT22;9382;53.242;10.438;2023-02-28T04:28:55;-3.50;99.90
18506;DHT22;9382;53.242;10.438;2023-02-28T04:31:21;-3.60;99.90
18506;DHT22;9382;53.242;10.438;2023-02-28T04:33:48;-3.60;99.90
18506;DHT22;9382;53.242;10.438;2023-02-28T04:36:15;-3.60;99.90
18506;DHT22;9382;53.242;10.438;2023-02-28T04:38:43;-3.70;99.90
18506;DHT22;9382;53.242;10.438;2023-02-28T04:41:12;-3.70;99.90
18506;DHT22;9382;53.242;10.438;2023-02-28T04:43:38;-3.60;99.90
18506;DHT22;9382;53.242;10.438;2023-02-28T04:46:05;-3.70;99.90
18506;DHT22;9382;53.242;10.438;2023-02-28T04:48:34;-3.70;99.90
18506;DHT22;9382;53.242;10.438;2023-02-28T04:51:01;-3.70;99.90
18506;DHT22;9382;53.242;10.438;2023-02-28T04:53:29;-3.70;99.90
18506;DHT22;9382;53.242;10.438;2023-02-28T04:55:56;-3.80;99.90
18506;DHT22;9382;53.242;10.438;2023-02-28T04:58:24;-3.90;99.90
18506;DHT22;9382;53.242;10.438;2023-02-28T05:00:51;-4.00;99.90
18506;DHT22;9382;53.242;10.438;2023-02-28T05:03:18;-4.00;99.90
18506;DHT22;9382;53.242;10.438;2023-02-28T05:05:46;-4.00;99.90
18506;DHT22;9382;53.242;10.438;2023-02-28T05:08:13;-4.00;99.90
18506;DHT22;9382;53.242;10.438;2023-02-28T05:10:40;-4.00;99.90
18506;DHT22;9382;53.242;10.438;2023-02-28T05:13:06;-4.10;99.90
18506;DHT22;9382;53.242;10.438;2023-02-28T05:15:35;-4.10;99.90
18506;DHT22;9382;53.242;10.438;2023-02-28T05:18:01;-4.10;99.90
18506;DHT22;9382;53.242;10.438;2023-02-28T05:20:28;-4.10;99.90
18506;DHT22;9382;53.242;10.438;2023-02-28T05:22:55;-4.10;99.90
18506;DHT22;9382;53.242;10.438;2023-02-28T05:25:23;-4.10;99.90
18506;DHT22;9382;53.242;10.438;2023-02-28T05:27:50;-4.00;99.90
18506;DHT22;9382;53.242;10.438;2023-02-28T05:30:17;-4.10;99.90
18506;DHT22;9382;53.242;10.438;2023-02-28T05:32:50;-4.10;99.90
18506;DHT22;9382;53.242;10.438;2023-02-28T05:35:17;-4.10;99.90
18506;DHT22;9382;53.242;10.438;2023-02-28T05:37:43;-4.10;99.90
18506;DHT22;9382;53.242;10.438;2023-02-28T05:40:11;-4.20;99.90
18506;DHT22;9382;53.242;10.438;2023-02-28T05:42:38;-4.20;99.90
18506;DHT22;9382;53.242;10.438;2023-02-28T05:45:06;-4.30;99.90
18506;DHT22;9382;53.242;10.438;2023-02-28T05:47:33;-4.30;99.90
18506;DHT22;9382;53.242;10.438;2023-02-28T05:50:01;-4.30;99.90
18506;DHT22;9382;53.242;10.438;2023-02-28T05:52:29;-4.40;99.90
18506;DHT22;9382;53.242;10.438;2023-02-28T05:54:56;-4.30;99.90
18506;DHT22;9382;53.242;10.438;2023-02-28T05:57:23;-4.30;99.90
18506;DHT22;9382;53.242;10.438;2023-02-28T05:59:50;-4.30;99.90
18506;DHT22;9382;53.242;10.438;2023-02-28T06:02:17;-4.30;99.90
18506;DHT22;9382;53.242;10.438;2023-02-28T06:04:44;-4.30;99.90
18506;DHT22;9382;53.242;10.438;2023-02-28T06:07:12;-4.30;99.90
18506;DHT22;9382;53.242;10.438;2023-02-28T06:09:39;-4.30;99.90
18506;DHT22;9382;53.242;10.438;2023-02-28T06:12:06;-4.30;99.90
18506;DHT22;9382;53.242;10.438;2023-02-28T06:14:35;-4.40;99.90
18506;DHT22;9382;53.242;10.438;2023-02-28T06:17:03;-4.40;99.90
18506;DHT22;9382;53.242;10.438;2023-02-28T06:19:29;-4.30;99.90
18506;DHT22;9382;53.242;10.438;2023-02-28T06:21:56;-4.40;99.90
18506;DHT22;9382;53.242;10.438;2023-02-28T06:24:26;-4.40;99.90
18506;DHT22;9382;53.242;10.438;2023-02-28T06:26:54;-4.30;99.90
18506;DHT22;9382;53.242;10.438;2023-02-28T06:29:21;-4.40;99.90
18506;DHT22;9382;53.242;10.438;2023-02-28T06:31:48;-4.30;99.90
18506;DHT22;9382;53.242;10.438;2023-02-28T06:34:15;-4.30;99.90
18506;DHT22;9382;53.242;10.438;2023-02-28T06:36:42;-4.20;99.90
18506;DHT22;9382;53.242;10.438;2023-02-28T06:39:09;-4.20;99.90
18506;DHT22;9382;53.242;10.438;2023-02-28T06:41:37;-4.20;99.90
18506;DHT22;9382;53.242;10.438;2023-02-28T06:44:05;-4.10;99.90
18506;DHT22;9382;53.242;10.438;2023-02-28T06:46:32;-4.00;99.90
18506;DHT22;9382;53.242;10.438;2023-02-28T06:48:59;-4.00;99.90
18506;DHT22;9382;53.242;10.438;2023-02-28T06:51:25;-3.90;99.90
18506;DHT22;9382;53.242;10.438;2023-02-28T06:53:52;-3.90;99.90
18506;DHT22;9382;53.242;10.438;2023-02-28T06:56:19;-3.80;99.90
18506;DHT22;9382;53.242;10.438;2023-02-28T06:58:49;-3.70;99.90
18506;DHT22;9382;53.242;10.438;2023-02-28T07:01:18;-3.70;99.90
18506;DHT22;9382;53.242;10.438;2023-02-28T07:03:45;-3.60;99.90
18506;DHT22;9382;53.242;10.438;2023-02-28T07:06:12;-3.40;99.90
18506;DHT22;9382;53.242;10.438;2023-02-28T07:08:38;-3.30;99.90
18506;DHT22;9382;53.242;10.438;2023-02-28T07:11:06;-3.20;99.90
18506;DHT22;9382;53.242;10.438;2023-02-28T07:13:33;-3.10;99.90
18506;DHT22;9382;53.242;10.438;2023-02-28T07:16:04;-3.00;99.90
18506;DHT22;9382;53.242;10.438;2023-02-28T07:18:31;-2.90;99.90
18506;DHT22;9382;53.242;10.438;2023-02-28T07:21:02;-2.80;99.90
18506;DHT22;9382;53.242;10.438;2023-02-28T07:23:29;-2.70;99.90
18506;DHT22;9382;53.242;10.438;2023-02-28T07:25:55;-2.60;99.90
18506;DHT22;9382;53.242;10.438;2023-02-28T07:28:22;-2.50;99.90
18506;DHT22;9382;53.242;10.438;2023-02-28T07:30:49;-2.40;99.90
18506;DHT22;9382;53.242;10.438;2023-02-28T07:33:17;-2.30;99.90
18506;DHT22;9382;53.242;10.438;2023-02-28T07:35:44;-2.20;99.90
18506;DHT22;9382;53.242;10.438;2023-02-28T07:38:11;-2.10;99.90
18506;DHT22;9382;53.242;10.438;2023-02-28T07:40:39;-2.00;99.90
18506;DHT22;9382;53.242;10.438;2023-02-28T07:43:06;-1.80;99.90
18506;DHT22;9382;53.242;10.438;2023-02-28T07:45:33;-1.70;99.90
18506;DHT22;9382;53.242;10.438;2023-02-28T07:48:01;-1.60;99.90
18506;DHT22;9382;53.242;10.438;2023-02-28T07:50:29;-1.40;99.90
18506;DHT22;9382;53.242;10.438;2023-02-28T07:52:57;-1.20;99.90
18506;DHT22;9382;53.242;10.438;2023-02-28T07:55:24;-1.10;99.90
18506;DHT22;9382;53.242;10.438;2023-02-28T07:57:50;-1.00;99.90
18506;DHT22;9382;53.242;10.438;2023-02-28T08:00:17;-0.90;99.90
18506;DHT22;9382;53.242;10.438;2023-02-28T08:02:44;-0.70;99.90
18506;DHT22;9382;53.242;10.438;2023-02-28T08:05:11;-0.60;99.90
18506;DHT22;9382;53.242;10.438;2023-02-28T08:07:39;-0.40;99.90
18506;DHT22;9382;53.242;10.438;2023-02-28T08:10:07;-0.30;99.90
18506;DHT22;9382;53.242;10.438;2023-02-28T08:12:35;-0.10;99.90
18506;DHT22;9382;53.242;10.438;2023-02-28T08:15:02;0.10;99.90
18506;DHT22;9382;53.242;10.438;2023-02-28T08:17:29;0.30;99.90
18506;DHT22;9382;53.242;10.438;2023-02-28T08:19:56;0.50;99.90
18506;DHT22;9382;53.242;10.438;2023-02-28T08:22:23;0.60;99.90
18506;DHT22;9382;53.242;10.438;2023-02-28T08:24:51;0.80;99.90
18506;DHT22;9382;53.242;10.438;2023-02-28T08:27:17;1.00;99.90
18506;DHT22;9382;53.242;10.438;2023-02-28T08:29:44;1.10;99.90
18506;DHT22;9382;53.242;10.438;2023-02-28T08:32:11;1.30;99.90
18506;DHT22;9382;53.242;10.438;2023-02-28T08:34:39;1.40;99.90
18506;DHT22;9382;53.242;10.438;2023-02-28T08:37:05;1.60;99.90
18506;DHT22;9382;53.242;10.438;2023-02-28T08:39:34;1.80;99.90
18506;DHT22;9382;53.242;10.438;2023-02-28T08:42:03;1.90;99.90
18506;DHT22;9382;53.242;10.438;2023-02-28T08:44:30;2.10;99.90
18506;DHT22;9382;53.242;10.438;2023-02-28T08:46:57;2.30;99.90
18506;DHT22;9382;53.242;10.438;2023-02-28T08:49:24;2.40;99.90
18506;DHT22;9382;53.242;10.438;2023-02-28T08:51:50;2.60;99.90
18506;DHT22;9382;53.242;10.438;2023-02-28T08:54:17;2.80;99.90
18506;DHT22;9382;53.242;10.438;2023-02-28T08:56:45;2.90;99.90
18506;DHT22;9382;53.242;10.438;2023-02-28T08:59:13;3.10;99.90
18506;DHT22;9382;53.242;10.438;2023-02-28T09:01:40;3.30;99.90
18506;DHT22;9382;53.242;10.438;2023-02-28T09:04:09;3.50;99.90
18506;DHT22;9382;53.242;10.438;2023-02-28T09:06:37;3.70;99.90
18506;DHT22;9382;53.242;10.438;2023-02-28T09:09:04;3.80;99.90
18506;DHT22;9382;53.242;10.438;2023-02-28T09:11:33;4.00;99.90
18506;DHT22;9382;53.242;10.438;2023-02-28T09:14:00;4.10;99.90
18506;DHT22;9382;53.242;10.438;2023-02-28T09:16:30;4.10;99.90
18506;DHT22;9382;53.242;10.438;2023-02-28T09:18:57;4.30;99.90
18506;DHT22;9382;53.242;10.438;2023-02-28T09:21:24;4.50;99.90
18506;DHT22;9382;53.242;10.438;2023-02-28T09:23:51;4.60;99.90
18506;DHT22;9382;53.242;10.438;2023-02-28T09:26:20;4.80;99.90
18506;DHT22;9382;53.242;10.438;2023-02-28T09:28:47;4.80;99.90
18506;DHT22;9382;53.242;10.438;2023-02-28T09:31:16;4.90;99.90
18506;DHT22;9382;53.242;10.438;2023-02-28T09:33:47;5.10;99.90
18506;DHT22;9382;53.242;10.438;2023-02-28T09:36:14;5.30;99.90
18506;DHT22;9382;53.242;10.438;2023-02-28T09:38:41;5.60;99.90
18506;DHT22;9382;53.242;10.438;2023-02-28T09:41:13;5.90;99.90
18506;DHT22;9382;53.242;10.438;2023-02-28T09:43:43;6.00;99.90
18506;DHT22;9382;53.242;10.438;2023-02-28T09:46:18;6.20;99.90
18506;DHT22;9382;53.242;10.438;2023-02-28T09:48:50;6.20;99.90
18506;DHT22;9382;53.242;10.438;2023-02-28T09:51:29;6.30;99.90
18506;DHT22;9382;53.242;10.438;2023-02-28T09:53:56;6.60;99.90
18506;DHT22;9382;53.242;10.438;2023-02-28T09:56:27;6.50;99.90
18506;DHT22;9382;53.242;10.438;2023-02-28T09:58:59;6.70;99.90
18506;DHT22;9382;53.242;10.438;2023-02-28T10:01:34;6.90;99.90
18506;DHT22;9382;53.242;10.438;2023-02-28T10:04:10;7.20;99.90
18506;DHT22;9382;53.242;10.438;2023-02-28T10:06:43;7.40;99.90
18506;DHT22;9382;53.242;10.438;2023-02-28T10:09:15;7.40;99.90
18506;DHT22;9382;53.242;10.438;2023-02-28T10:11:44;7.60;99.90
18506;DHT22;9382;53.242;10.438;2023-02-28T10:14:15;7.80;99.90
18506;DHT22;9382;53.242;10.438;2023-02-28T10:16:45;7.90;99.90
18506;DHT22;9382;53.242;10.438;2023-02-28T10:19:21;8.10;99.90
18506;DHT22;9382;53.242;10.438;2023-02-28T10:21:54;8.40;99.90
18506;DHT22;9382;53.242;10.438;2023-02-28T10:24:26;8.60;99.90
18506;DHT22;9382;53.242;10.438;2023-02-28T10:26:59;8.70;99.90
18506;DHT22;9382;53.242;10.438;2023-02-28T10:29:27;8.80;99.90
18506;DHT22;9382;53.242;10.438;2023-02-28T10:31:55;8.90;99.90
18506;DHT22;9382;53.242;10.438;2023-02-28T10:34:24;9.00;99.90
18506;DHT22;9382;53.242;10.438;2023-02-28T10:36:51;8.80;99.90
18506;DHT22;9382;53.242;10.438;2023-02-28T10:39:39;8.60;99.90
18506;DHT22;9382;53.242;10.438;2023-02-28T10:42:21;8.50;99.90
18506;DHT22;9382;53.242;10.438;2023-02-28T10:45:05;8.70;99.90
18506;DHT22;9382;53.242;10.438;2023-02-28T10:47:33;8.70;99.90
18506;DHT22;9382;53.242;10.438;2023-02-28T10:50:03;8.90;99.90
18506;DHT22;9382;53.242;10.438;2023-02-28T10:52:36;9.20;99.90
18506;DHT22;9382;53.242;10.438;2023-02-28T10:55:20;9.50;99.90
18506;DHT22;9382;53.242;10.438;2023-02-28T10:57:48;9.80;99.90
18506;DHT22;9382;53.242;10.438;2023-02-28T11:00:17;10.00;99.90
18506;DHT22;9382;53.242;10.438;2023-02-28T11:02:47;10.10;99.90
18506;DHT22;9382;53.242;10.438;2023-02-28T11:05:27;10.40;99.90
18506;DHT22;9382;53.242;10.438;2023-02-28T11:07:55;10.40;99.90
18506;DHT22;9382;53.242;10.438;2023-02-28T11:10:25;10.70;99.90
18506;DHT22;9382;53.242;10.438;2023-02-28T11:12:55;10.90;99.90
18506;DHT22;9382;53.242;10.438;2023-02-28T11:15:24;11.10;99.90
18506;DHT22;9382;53.242;10.438;2023-02-28T11:17:56;11.10;99.90
18506;DHT22;9382;53.242;10.438;2023-02-28T11:20:26;11.20;99.90
18506;DHT22;9382;53.242;10.438;2023-02-28T11:22:54;11.40;99.90
18506;DHT22;9382;53.242;10.438;2023-02-28T11:25:24;11.50;99.90
18506;DHT22;9382;53.242;10.438;2023-02-28T11:27:53;12.00;99.90
18506;DHT22;9382;53.242;10.438;2023-02-28T11:30:31;12.40;99.90
18506;DHT22;9382;53.242;10.438;2023-02-28T11:32:59;12.70;99.90
18506;DHT22;9382;53.242;10.438;2023-02-28T11:35:31;12.70;99.90
18506;DHT22;9382;53.242;10.438;2023-02-28T11:38:00;12.90;99.90
18506;DHT22;9382;53.242;10.438;2023-02-28T11:40:34;13.30;99.90
18506;DHT22;9382;53.242;10.438;2023-02-28T11:43:18;13.60;99.90
18506;DHT22;9382;53.242;10.438;2023-02-28T11:45:57;14.10;99.90
18506;DHT22;9382;53.242;10.438;2023-02-28T11:48:31;14.50;99.90
18506;DHT22;9382;53.242;10.438;2023-02-28T11:51:08;14.90;99.90
18506;DHT22;9382;53.242;10.438;2023-02-28T11:53:56;15.00;96.30
18506;DHT22;9382;53.242;10.438;2023-02-28T11:56:30;14.80;98.80
18506;DHT22;9382;53.242;10.438;2023-02-28T11:59:27;15.30;97.70
18506;DHT22;9382;53.242;10.438;2023-02-28T12:02:26;15.70;95.30
18506;DHT22;9382;53.242;10.438;2023-02-28T12:05:16;16.00;93.70
18506;DHT22;9382;53.242;10.438;2023-02-28T12:07:59;16.00;95.40
18506;DHT22;9382;53.242;10.438;2023-02-28T12:10:29;16.50;94.40
18506;DHT22;9382;53.242;10.438;2023-02-28T12:13:07;16.90;92.30
18506;DHT22;9382;53.242;10.438;2023-02-28T12:15:54;17.10;93.30
18506;DHT22;9382;53.242;10.438;2023-02-28T12:18:42;17.10;91.30
18506;DHT22;9382;53.242;10.438;2023-02-28T12:21:20;17.20;89.40
18506;DHT22;9382;53.242;10.438;2023-02-28T12:24:14;16.40;86.90
18506;DHT22;9382;53.242;10.438;2023-02-28T12:26:45;16.70;90.60
18506;DHT22;9382;53.242;10.438;2023-02-28T12:29:16;17.10;90.10
18506;DHT22;9382;53.242;10.438;2023-02-28T12:31:48;17.40;86.20
18506;DHT22;9382;53.242;10.438;2023-02-28T12:34:19;17.60;87.70
18506;DHT22;9382;53.242;10.438;2023-02-28T12:36:47;18.20;90.20
18506;DHT22;9382;53.242;10.438;2023-02-28T12:39:20;18.10;83.50
18506;DHT22;9382;53.242;10.438;2023-02-28T12:41:50;18.10;84.30
18506;DHT22;9382;53.242;10.438;2023-02-28T12:44:21;18.30;86.50
18506;DHT22;9382;53.242;10.438;2023-02-28T12:46:52;18.90;86.20
18506;DHT22;9382;53.242;10.438;2023-02-28T12:49:23;19.00;81.80
18506;DHT22;9382;53.242;10.438;2023-02-28T12:51:52;19.00;85.60
18506;DHT22;9382;53.242;10.438;2023-02-28T12:54:24;19.20;81.80
18506;DHT22;9382;53.242;10.438;2023-02-28T12:56:57;19.20;77.40
18506;DHT22;9382;53.242;10.438;2023-02-28T12:59:35;19.50;82.80
18506;DHT22;9382;53.242;10.438;2023-02-28T13:05:38;20.50;80.40
18506;DHT22;9382;53.242;10.438;2023-02-28T13:08:22;20.50;75.30
18506;DHT22;9382;53.242;10.438;2023-02-28T13:10:55;20.40;74.50
18506;DHT22;9382;53.242;10.438;2023-02-28T13:13:23;20.70;76.00
18506;DHT22;9382;53.242;10.438;2023-02-28T13:16:03;20.90;78.80
18506;DHT22;9382;53.242;10.438;2023-02-28T13:18:34;21.30;74.10
18506;DHT22;9382;53.242;10.438;2023-02-28T13:21:04;21.50;71.70
18506;DHT22;9382;53.242;10.438;2023-02-28T13:24:01;21.30;74.30
18506;DHT22;9382;53.242;10.438;2023-02-28T13:29:35;20.90;69.90
18506;DHT22;9382;53.242;10.438;2023-02-28T13:32:33;21.00;72.00
18506;DHT22;9382;53.242;10.438;2023-02-28T13:35:36;21.50;72.70
18506;DHT22;9382;53.242;10.438;2023-02-28T13:38:23;21.90;69.60
18506;DHT22;9382;53.242;10.438;2023-02-28T13:40:50;21.70;72.50
18506;DHT22;9382;53.242;10.438;2023-02-28T13:43:17;21.80;68.80
18506;DHT22;9382;53.242;10.438;2023-02-28T13:46:11;22.40;73.00
18506;DHT22;9382;53.242;10.438;2023-02-28T13:48:39;22.70;70.00
18506;DHT22;9382;53.242;10.438;2023-02-28T13:51:35;22.70;69.70
18506;DHT22;9382;53.242;10.438;2023-02-28T13:54:16;22.70;64.90
18506;DHT22;9382;53.242;10.438;2023-02-28T13:56:50;22.30;69.30
18506;DHT22;9382;53.242;10.438;2023-02-28T13:59:25;22.00;68.40
18506;DHT22;9382;53.242;10.438;2023-02-28T14:02:11;22.30;68.40
18506;DHT22;9382;53.242;10.438;2023-02-28T14:04:59;22.10;66.40
18506;DHT22;9382;53.242;10.438;2023-02-28T14:07:29;22.10;68.20
18506;DHT22;9382;53.242;10.438;2023-02-28T14:10:02;22.50;69.30
18506;DHT22;9382;53.242;10.438;2023-02-28T14:13:00;23.00;65.10
18506;DHT22;9382;53.242;10.438;2023-02-28T14:15:40;22.90;66.10
18506;DHT22;9382;53.242;10.438;2023-02-28T14:18:19;22.50;64.40
18506;DHT22;9382;53.242;10.438;2023-02-28T14:20:48;22.40;67.20
18506;DHT22;9382;53.242;10.438;2023-02-28T14:23:34;22.40;63.30
18506;DHT22;9382;53.242;10.438;2023-02-28T14:26:10;22.40;67.30
18506;DHT22;9382;53.242;10.438;2023-02-28T14:28:54;22.50;63.90
18506;DHT22;9382;53.242;10.438;2023-02-28T14:31:25;22.70;65.20
18506;DHT22;9382;53.242;10.438;2023-02-28T14:36:47;22.00;61.80
18506;DHT22;9382;53.242;10.438;2023-02-28T14:39:16;22.20;64.40
18506;DHT22;9382;53.242;10.438;2023-02-28T14:41:44;22.60;64.70
18506;DHT22;9382;53.242;10.438;2023-02-28T14:44:17;22.80;61.50
18506;DHT22;9382;53.242;10.438;2023-02-28T14:46:46;22.50;62.60
18506;DHT22;9382;53.242;10.438;2023-02-28T14:49:19;22.60;63.30
18506;DHT22;9382;53.242;10.438;2023-02-28T14:51:47;22.60;63.40
18506;DHT22;9382;53.242;10.438;2023-02-28T14:54:15;22.90;61.40
18506;DHT22;9382;53.242;10.438;2023-02-28T14:56:43;22.90;62.20
18506;DHT22;9382;53.242;10.438;2023-02-28T14:59:29;23.10;60.80
18506;DHT22;9382;53.242;10.438;2023-02-28T15:02:15;23.30;60.10
18506;DHT22;9382;53.242;10.438;2023-02-28T15:04:53;22.70;63.10
18506;DHT22;9382;53.242;10.438;2023-02-28T15:07:20;22.40;59.60
18506;DHT22;9382;53.242;10.438;2023-02-28T15:10:12;21.90;60.80
18506;DHT22;9382;53.242;10.438;2023-02-28T15:12:40;21.70;60.50
18506;DHT22;9382;53.242;10.438;2023-02-28T15:15:15;20.90;62.20
18506;DHT22;9382;53.242;10.438;2023-02-28T15:17:44;19.00;64.00
18506;DHT22;9382;53.242;10.438;2023-02-28T15:20:14;17.30;66.30
18506;DHT22;9382;53.242;10.438;2023-02-28T15:22:42;16.30;70.40
18506;DHT22;9382;53.242;10.438;2023-02-28T15:25:10;16.90;72.20
18506;DHT22;9382;53.242;10.438;2023-02-28T15:27:44;18.10;67.00
18506;DHT22;9382;53.242;10.438;2023-02-28T15:30:16;19.00;64.80
18506;DHT22;9382;53.242;10.438;2023-02-28T15:32:44;19.50;64.60
18506;DHT22;9382;53.242;10.438;2023-02-28T15:35:24;19.80;62.50
18506;DHT22;9382;53.242;10.438;2023-02-28T15:37:55;19.80;61.60
18506;DHT22;9382;53.242;10.438;2023-02-28T15:40:25;19.60;61.60
18506;DHT22;9382;53.242;10.438;2023-02-28T15:43:02;19.40;64.70
18506;DHT22;9382;53.242;10.438;2023-02-28T15:45:37;19.30;66.10
18506;DHT22;9382;53.242;10.438;2023-02-28T15:48:15;19.80;64.00
18506;DHT22;9382;53.242;10.438;2023-02-28T15:50:46;19.70;63.20
18506;DHT22;9382;53.242;10.438;2023-02-28T15:53:16;19.70;63.00
18506;DHT22;9382;53.242;10.438;2023-02-28T15:55:44;19.80;60.80
18506;DHT22;9382;53.242;10.438;2023-02-28T15:58:12;19.30;63.30
18506;DHT22;9382;53.242;10.438;2023-02-28T16:00:43;18.30;62.90
18506;DHT22;9382;53.242;10.438;2023-02-28T16:03:26;16.30;64.80
18506;DHT22;9382;53.242;10.438;2023-02-28T16:06:21;14.20;69.40
18506;DHT22;9382;53.242;10.438;2023-02-28T16:08:50;12.60;71.50
18506;DHT22;9382;53.242;10.438;2023-02-28T16:11:19;11.20;74.80
18506;DHT22;9382;53.242;10.438;2023-02-28T16:13:46;10.20;78.20